createdAt,value
2022-08-04T00:02:22.442Z,20.70
2022-08-04T00:04:56.082Z,20.60
2022-08-04T00:07:43.960Z,20.60
2022-08-04T00:10:16.656Z,20.60
2022-08-04T00:12:49.918Z,20.60
2022-08-04T00:15:19.693Z,20.60
2022-08-04T00:18:00.246Z,20.60
2022-08-04T00:20:32.037Z,20.60
2022-08-04T00:23:01.481Z,20.60
2022-08-04T00:25:29.700Z,20.60
2022-08-04T00:27:56.715Z,20.60
2022-08-04T00:30:25.380Z,20.60
2022-08-04T00:32:53.457Z,20.60
2022-08-04T00:35:21.206Z,20.60
2022-08-04T00:37:49.430Z,20.50
2022-08-04T00:40:28.998Z,20.50
2022-08-04T00:43:19.555Z,20.50
2022-08-04T00:46:21.571Z,20.50
2022-08-04T00:49:07.920Z,20.50
2022-08-04T00:51:44.198Z,20.50
2022-08-04T00:54:48.813Z,20.50
2022-08-04T00:57:30.124Z,20.50
2022-08-04T01:00:07.883Z,20.50
2022-08-04T01:02:45.683Z,20.50
2022-08-04T01:05:28.153Z,20.40
2022-08-04T01:08:44.166Z,20.40
2022-08-04T01:11:56.858Z,20.40
2022-08-04T01:14:28.006Z,20.40
2022-08-04T01:17:12.965Z,20.40
2022-08-04T01:19:52.930Z,20.40
2022-08-04T01:22:32.506Z,20.30
2022-08-04T01:25:35.934Z,20.30
2022-08-04T01:28:32.021Z,20.20
2022-08-04T01:31:38.759Z,20.20
2022-08-04T01:34:09.772Z,20.20
2022-08-04T01:36:50.005Z,20.20
2022-08-04T01:39:38.088Z,20.20
2022-08-04T01:42:06.598Z,20.20
2022-08-04T01:44:39.918Z,20.20
2022-08-04T01:47:08.890Z,20.20
2022-08-04T01:49:40.867Z,20.10
2022-08-04T01:52:10.506Z,20.10
2022-08-04T01:54:41.239Z,20.10
2022-08-04T01:57:37.931Z,20.10
2022-08-04T02:00:00.040Z,20.00
2022-08-04T02:02:28.789Z,20.00
2022-08-04T02:04:56.811Z,20.10
2022-08-04T02:08:09.947Z,20.10
2022-08-04T02:11:13.864Z,20.10
2022-08-04T02:14:08.802Z,20.10
2022-08-04T02:16:52.258Z,20.10
2022-08-04T02:19:34.857Z,20.10
2022-08-04T02:22:13.914Z,20.10
2022-08-04T02:24:49.944Z,20.10
2022-08-04T02:27:25.391Z,20.10
2022-08-04T02:30:05.746Z,20.10
2022-08-04T02:32:39.931Z,20.10
2022-08-04T02:35:11.636Z,20.10
2022-08-04T02:37:47.278Z,20.10
2022-08-04T02:40:20.234Z,20.10
2022-08-04T02:42:49.962Z,20.10
2022-08-04T02:45:20.984Z,20.10
2022-08-04T02:48:08.264Z,20.10
2022-08-04T02:50:40.833Z,20.10
2022-08-04T02:53:13.793Z,20.10
2022-08-04T02:55:51.029Z,20.10
2022-08-04T02:58:22.062Z,20.10
2022-08-04T03:00:52.265Z,20.10
2022-08-04T03:03:22.267Z,20.10
2022-08-04T03:06:15.003Z,20.10
2022-08-04T03:09:05.137Z,20.10
2022-08-04T03:11:57.902Z,20.10
2022-08-04T03:14:56.670Z,20.10
2022-08-04T03:17:53.198Z,20.10
2022-08-04T03:20:41.601Z,20.10
2022-08-04T03:23:34.588Z,20.10
2022-08-04T03:26:23.824Z,20.10
2022-08-04T03:29:37.732Z,20.10
2022-08-04T03:32:05.256Z,20.10
2022-08-04T03:34:58.826Z,20.20
2022-08-04T03:38:06.332Z,20.10
2022-08-04T03:40:44.334Z,20.10
2022-08-04T03:43:58.165Z,20.10
2022-08-04T03:46:48.557Z,20.10
2022-08-04T03:49:41.658Z,20.10
2022-08-04T03:53:07.285Z,20.10
2022-08-04T03:55:55.944Z,20.20
2022-08-04T03:58:54.696Z,20.20
2022-08-04T04:01:41.566Z,20.20
2022-08-04T04:05:00.153Z,20.20
2022-08-04T04:07:58.274Z,20.20
2022-08-04T04:10:37.832Z,20.30
2022-08-04T04:13:26.502Z,20.30
2022-08-04T04:16:06.022Z,20.30
2022-08-04T04:18:49.219Z,20.30
2022-08-04T04:21:43.950Z,20.30
2022-08-04T04:24:26.196Z,20.30
2022-08-04T04:27:26.210Z,20.40
2022-08-04T04:30:12.458Z,20.40
2022-08-04T04:33:00.157Z,20.40
2022-08-04T04:35:48.846Z,20.40
2022-08-04T04:38:38.816Z,20.40
2022-08-04T04:41:35.195Z,20.40
2022-08-04T04:44:40.032Z,20.50
2022-08-04T04:48:01.710Z,20.50
2022-08-04T04:50:36.470Z,20.50
2022-08-04T04:53:16.402Z,20.60
2022-08-04T04:55:53.173Z,20.60
2022-08-04T04:58:22.701Z,20.60
2022-08-04T05:01:05.544Z,20.60
2022-08-04T05:03:59.582Z,20.70
2022-08-04T05:06:39.574Z,20.70
2022-08-04T05:09:31.137Z,20.70
2022-08-04T05:12:02.515Z,20.70
2022-08-04T05:14:42.050Z,20.80
2022-08-04T05:17:19.310Z,20.80
2022-08-04T05:20:13.322Z,20.80
2022-08-04T05:23:16.342Z,20.90
2022-08-04T05:25:59.241Z,20.90
2022-08-04T05:28:36.465Z,20.90
2022-08-04T05:31:31.220Z,21.00
2022-08-04T05:34:28.118Z,21.00
2022-08-04T05:37:02.686Z,21.10
2022-08-04T05:39:39.138Z,21.10
2022-08-04T05:42:09.835Z,21.10
2022-08-04T05:44:38.376Z,21.20
2022-08-04T05:47:07.266Z,21.20
2022-08-04T05:49:36.085Z,21.30
2022-08-04T05:52:05.082Z,21.40
2022-08-04T05:54:35.381Z,21.40
2022-08-04T05:57:07.830Z,21.50
2022-08-04T05:59:39.066Z,21.50
2022-08-04T06:02:08.119Z,21.50
2022-08-04T06:04:38.702Z,21.50
2022-08-04T06:07:07.794Z,21.50
2022-08-04T06:09:35.092Z,21.50
2022-08-04T06:12:07.645Z,21.50
2022-08-04T06:14:42.334Z,21.50
2022-08-04T06:18:33.855Z,21.50
2022-08-04T06:20:17.993Z,21.60
2022-08-04T06:22:52.586Z,21.70
2022-08-04T06:25:24.909Z,21.70
2022-08-04T06:27:53.442Z,21.70
2022-08-04T06:30:26.173Z,21.70
2022-08-04T06:33:03.897Z,21.90
2022-08-04T06:35:34.508Z,22.10
2022-08-04T06:38:03.976Z,22.30
2022-08-04T06:40:34.945Z,22.40
2022-08-04T06:43:06.562Z,22.40
2022-08-04T06:45:37.813Z,22.40
2022-08-04T06:48:06.627Z,22.50
2022-08-04T06:51:30.845Z,22.60
2022-08-04T06:53:27.287Z,22.60
2022-08-04T06:55:57.818Z,22.60
2022-08-04T06:58:27.945Z,22.60
2022-08-04T07:01:01.925Z,22.60
2022-08-04T07:03:30.750Z,22.60
2022-08-04T07:06:06.312Z,22.70
2022-08-04T07:08:43.160Z,22.80
2022-08-04T07:11:12.558Z,23.00
2022-08-04T07:13:45.188Z,23.20
2022-08-04T07:16:15.664Z,23.20
2022-08-04T07:18:42.936Z,23.30
2022-08-04T07:21:18.609Z,23.50
2022-08-04T07:23:46.954Z,23.70
2022-08-04T07:26:17.253Z,23.70
2022-08-04T07:28:45.558Z,23.60
2022-08-04T07:31:31.902Z,23.60
2022-08-04T07:34:17.612Z,23.80
2022-08-04T07:36:53.008Z,23.90
2022-08-04T07:39:28.743Z,23.90
2022-08-04T07:41:58.786Z,23.80
2022-08-04T07:44:27.506Z,23.80
2022-08-04T07:46:55.518Z,23.70
2022-08-04T07:49:56.852Z,23.60
2022-08-04T07:52:16.352Z,23.70
2022-08-04T07:54:45.272Z,23.70
2022-08-04T07:57:19.449Z,23.70
2022-08-04T08:00:00.044Z,23.80
2022-08-04T08:02:28.357Z,23.70
2022-08-04T08:04:56.431Z,23.80
2022-08-04T08:07:24.402Z,23.80
2022-08-04T08:09:52.122Z,24.00
2022-08-04T08:12:35.711Z,24.00
2022-08-04T08:15:10.590Z,24.20
2022-08-04T08:17:57.914Z,24.30
2022-08-04T08:20:30.922Z,24.40
2022-08-04T08:23:01.891Z,24.50
2022-08-04T08:25:32.327Z,24.70
2022-08-04T08:28:04.274Z,24.80
2022-08-04T08:30:34.490Z,24.80
2022-08-04T08:33:06.317Z,25.10
2022-08-04T08:35:58.030Z,25.10
2022-08-04T08:38:40.806Z,25.20
2022-08-04T08:41:35.799Z,25.50
2022-08-04T08:44:36.591Z,25.60
2022-08-04T08:47:10.170Z,25.70
2022-08-04T08:50:04.623Z,25.60
2022-08-04T08:53:02.147Z,25.70
2022-08-04T08:55:37.773Z,25.40
2022-08-04T08:58:17.994Z,25.40
2022-08-04T09:01:05.098Z,25.60
2022-08-04T09:04:00.433Z,25.70
2022-08-04T09:06:48.441Z,25.90
2022-08-04T09:09:36.551Z,26.00
2022-08-04T09:12:39.408Z,26.20
2022-08-04T09:15:33.186Z,26.40
2022-08-04T09:18:19.606Z,26.60
2022-08-04T09:20:56.228Z,26.60
2022-08-04T09:23:57.171Z,26.70
2022-08-04T09:26:48.488Z,26.80
2022-08-04T09:29:27.770Z,26.90
2022-08-04T09:32:17.234Z,27.00
2022-08-04T09:35:24.147Z,27.20
2022-08-04T09:38:04.870Z,27.10
2022-08-04T09:40:55.621Z,27.20
2022-08-04T09:44:41.945Z,27.30
2022-08-04T09:46:55.874Z,27.40
2022-08-04T09:49:38.598Z,27.80
2022-08-04T09:52:33.109Z,27.60
2022-08-04T09:55:53.831Z,27.50
2022-08-04T09:58:37.399Z,27.80
2022-08-04T10:01:13.291Z,27.90
2022-08-04T10:03:49.231Z,27.80
2022-08-04T10:06:59.719Z,27.70
2022-08-04T10:09:50.515Z,27.90
2022-08-04T10:12:35.969Z,28.10
2022-08-04T10:15:17.315Z,28.30
2022-08-04T10:18:10.902Z,28.40
2022-08-04T10:21:14.882Z,28.30
2022-08-04T10:24:11.511Z,28.10
2022-08-04T10:26:46.172Z,28.10
2022-08-04T10:29:29.674Z,28.10
2022-08-04T10:32:16.510Z,28.20
2022-08-04T10:35:08.308Z,27.90
2022-08-04T10:37:59.026Z,27.50
2022-08-04T10:40:45.464Z,27.70
2022-08-04T10:43:35.795Z,28.00
2022-08-04T10:46:21.488Z,28.10
2022-08-04T10:48:52.110Z,28.30
2022-08-04T10:52:01.356Z,28.20
2022-08-04T10:54:35.709Z,28.30
2022-08-04T10:57:08.724Z,28.40
2022-08-04T11:00:03.052Z,28.60
2022-08-04T11:02:40.557Z,28.80
2022-08-04T11:05:13.247Z,28.90
2022-08-04T11:07:45.280Z,28.90
2022-08-04T11:10:17.371Z,28.90
2022-08-04T11:12:49.523Z,28.80
2022-08-04T11:15:30.799Z,28.90
2022-08-04T11:18:13.267Z,28.90
2022-08-04T11:21:15.837Z,28.90
2022-08-04T11:23:56.173Z,29.10
2022-08-04T11:26:47.042Z,29.20
2022-08-04T11:29:32.926Z,29.40
2022-08-04T11:32:03.968Z,29.60
2022-08-04T11:34:34.639Z,29.40
2022-08-04T11:37:23.196Z,29.20
2022-08-04T11:39:53.909Z,29.00
2022-08-04T11:42:28.150Z,28.90
2022-08-04T11:45:05.330Z,29.00
2022-08-04T11:47:38.874Z,28.90
2022-08-04T11:50:32.387Z,29.00
2022-08-04T11:53:02.499Z,29.20
2022-08-04T11:55:32.047Z,29.30
2022-08-04T11:58:21.340Z,29.00
2022-08-04T12:01:03.994Z,29.00
2022-08-04T12:03:37.506Z,28.80
2022-08-04T12:06:37.368Z,28.70
2022-08-04T12:09:46.932Z,28.70
2022-08-04T12:12:41.286Z,28.70
2022-08-04T12:15:26.220Z,28.60
2022-08-04T12:18:42.742Z,28.90
2022-08-04T12:21:26.640Z,28.90
2022-08-04T12:24:01.042Z,29.10
2022-08-04T12:26:38.499Z,29.00
2022-08-04T12:29:10.458Z,29.20
2022-08-04T12:31:48.287Z,29.20
2022-08-04T12:34:34.139Z,29.40
2022-08-04T12:37:22.077Z,29.40
2022-08-04T12:40:28.692Z,29.40
2022-08-04T12:43:08.930Z,29.30
2022-08-04T12:45:42.882Z,29.30
2022-08-04T12:48:21.807Z,29.00
2022-08-04T12:50:53.907Z,28.90
2022-08-04T12:53:32.142Z,29.00
2022-08-04T12:56:02.719Z,29.20
2022-08-04T12:58:42.898Z,28.90
2022-08-04T13:02:09.581Z,28.60
2022-08-04T13:04:18.231Z,28.50
2022-08-04T13:06:57.887Z,28.30
2022-08-04T13:09:32.943Z,28.30
2022-08-04T13:12:13.104Z,28.50
2022-08-04T13:14:46.248Z,28.70
2022-08-04T13:17:14.472Z,28.90
2022-08-04T13:19:56.326Z,28.90
2022-08-04T13:22:28.610Z,28.90
2022-08-04T13:26:40.266Z,28.70
2022-08-04T13:27:48.763Z,28.70
2022-08-04T13:30:25.730Z,28.80
2022-08-04T13:33:00.174Z,28.90
2022-08-04T13:35:55.381Z,28.90
2022-08-04T13:38:17.818Z,29.00
2022-08-04T13:40:47.182Z,29.10
2022-08-04T13:44:16.216Z,29.10
2022-08-04T13:46:27.978Z,29.10
2022-08-04T13:49:25.992Z,28.80
2022-08-04T13:51:59.127Z,28.90
2022-08-04T13:54:44.006Z,29.00
2022-08-04T13:57:19.538Z,28.80
2022-08-04T13:59:51.880Z,28.70
2022-08-04T14:02:49.966Z,28.70
2022-08-04T14:05:20.142Z,28.80
2022-08-04T14:08:12.007Z,29.00
2022-08-04T14:10:40.820Z,29.10
2022-08-04T14:13:08.462Z,29.20
2022-08-04T14:16:02.993Z,29.00
2022-08-04T14:18:32.588Z,29.00
2022-08-04T14:21:04.851Z,28.90
2022-08-04T14:23:58.537Z,28.70
2022-08-04T14:26:34.074Z,28.80
2022-08-04T14:29:27.532Z,28.60
2022-08-04T14:32:03.214Z,28.40
2022-08-04T14:34:33.452Z,28.20
2022-08-04T14:37:18.505Z,28.10
2022-08-04T14:40:17.256Z,28.00
2022-08-04T14:42:54.457Z,28.00
2022-08-04T14:45:54.547Z,28.10
2022-08-04T14:48:23.149Z,28.10
2022-08-04T14:50:52.528Z,28.00
2022-08-04T14:53:22.507Z,27.90
2022-08-04T14:55:56.545Z,27.90
2022-08-04T14:58:38.767Z,27.80
2022-08-04T15:01:12.201Z,27.50
2022-08-04T15:03:48.286Z,27.60
2022-08-04T15:06:24.014Z,27.60
2022-08-04T15:08:52.523Z,27.70
2022-08-04T15:11:23.506Z,27.50
2022-08-04T15:13:53.917Z,27.40
2022-08-04T15:16:24.491Z,27.30
2022-08-04T15:18:54.882Z,27.20
2022-08-04T15:21:28.344Z,27.10
2022-08-04T15:23:57.776Z,27.00
2022-08-04T15:26:47.652Z,26.90
2022-08-04T15:29:20.844Z,26.70
2022-08-04T15:32:07.906Z,26.70
2022-08-04T15:34:50.718Z,26.70
2022-08-04T15:37:49.442Z,26.70
2022-08-04T15:40:27.048Z,26.60
2022-08-04T15:43:30.153Z,26.50
2022-08-04T15:46:33.220Z,26.50
2022-08-04T15:48:47.956Z,26.50
2022-08-04T15:51:31.966Z,26.50
2022-08-04T15:54:02.658Z,26.50
2022-08-04T15:56:31.158Z,26.60
2022-08-04T15:58:59.366Z,26.60
2022-08-04T16:01:27.914Z,26.60
2022-08-04T16:03:59.970Z,26.50
2022-08-04T16:06:30.681Z,26.50
2022-08-04T16:09:05.159Z,26.40
2022-08-04T16:11:36.859Z,26.40
2022-08-04T16:14:05.435Z,26.30
2022-08-04T16:16:39.954Z,26.20
2022-08-04T16:19:16.707Z,26.20
2022-08-04T16:22:00.122Z,26.20
2022-08-04T16:24:41.706Z,26.10
2022-08-04T16:27:13.880Z,26.00
2022-08-04T16:29:49.371Z,26.00
2022-08-04T16:32:16.942Z,25.90
2022-08-04T16:35:17.441Z,25.80
2022-08-04T16:37:45.710Z,25.80
2022-08-04T16:40:38.880Z,25.70
2022-08-04T16:43:13.805Z,25.60
2022-08-04T16:45:45.801Z,25.50
2022-08-04T16:48:16.130Z,25.50
2022-08-04T16:51:06.468Z,25.50
2022-08-04T16:54:03.146Z,25.50
2022-08-04T16:56:35.320Z,25.40
2022-08-04T16:59:12.598Z,25.40
2022-08-04T17:01:51.526Z,25.30
2022-08-04T17:04:40.120Z,25.20
2022-08-04T17:07:08.839Z,25.10
2022-08-04T17:09:37.022Z,25.10
2022-08-04T17:12:04.960Z,25.10
2022-08-04T17:14:32.611Z,24.90
2022-08-04T17:17:02.543Z,24.80
2022-08-04T17:19:31.521Z,24.70
2022-08-04T17:22:10.858Z,24.70
2022-08-04T17:24:40.851Z,24.70
2022-08-04T17:28:20.120Z,24.80
2022-08-04T17:29:59.839Z,24.80
2022-08-04T17:32:28.299Z,24.80
2022-08-04T17:35:04.080Z,24.90
2022-08-04T17:37:38.096Z,24.80
2022-08-04T17:40:22.418Z,24.90
2022-08-04T17:44:01.258Z,24.90
2022-08-04T17:46:29.013Z,24.80
2022-08-04T17:49:01.247Z,24.80
2022-08-04T17:52:02.026Z,24.70
2022-08-04T17:54:36.537Z,24.60
2022-08-04T17:57:23.061Z,24.50
2022-08-04T17:59:59.125Z,24.50
2022-08-04T18:02:31.902Z,24.40
2022-08-04T18:05:06.995Z,24.30
2022-08-04T18:08:41.500Z,24.30
2022-08-04T18:10:52.379Z,24.20
2022-08-04T18:13:26.178Z,24.00
2022-08-04T18:16:06.191Z,23.90
2022-08-04T18:18:49.004Z,23.90
2022-08-04T18:21:18.430Z,23.90
2022-08-04T18:23:51.065Z,23.80
2022-08-04T18:26:23.557Z,23.80
2022-08-04T18:28:52.351Z,23.80
2022-08-04T18:31:21.404Z,23.70
2022-08-04T18:33:59.161Z,23.60
2022-08-04T18:36:35.283Z,23.60
2022-08-04T18:42:03.638Z,23.50
2022-08-04T18:44:52.469Z,23.50
2022-08-04T18:47:23.453Z,23.50
2022-08-04T18:50:59.843Z,23.50
2022-08-04T18:52:45.307Z,23.40
2022-08-04T18:55:56.149Z,23.30
2022-08-04T18:58:05.992Z,23.20
2022-08-04T19:00:35.426Z,23.20
2022-08-04T19:03:02.583Z,23.20
2022-08-04T19:05:38.133Z,23.20
2022-08-04T19:08:32.472Z,23.20
2022-08-04T19:11:00.085Z,23.20
2022-08-04T19:13:29.690Z,23.10
2022-08-04T19:16:03.082Z,23.10
2022-08-04T19:18:32.401Z,23.10
2022-08-04T19:21:05.329Z,23.00
2022-08-04T19:24:29.005Z,23.10
2022-08-04T19:26:28.091Z,23.10
2022-08-04T19:28:56.726Z,22.90
2022-08-04T19:31:34.121Z,23.00
2022-08-04T19:34:09.307Z,23.00
2022-08-04T19:36:38.215Z,23.00
2022-08-04T19:39:14.438Z,23.00
2022-08-04T19:42:06.158Z,22.90
2022-08-04T19:44:32.249Z,22.90
2022-08-04T19:47:00.420Z,22.90
2022-08-04T19:50:05.172Z,22.80
2022-08-04T19:52:33.489Z,22.70
2022-08-04T19:55:09.878Z,22.70
2022-08-04T19:57:49.565Z,22.60
2022-08-04T20:00:32.864Z,22.60
2022-08-04T20:03:02.987Z,22.60
2022-08-04T20:05:52.809Z,22.60
2022-08-04T20:08:20.326Z,22.50
2022-08-04T20:10:51.754Z,22.50
2022-08-04T20:13:20.866Z,22.50
2022-08-04T20:15:57.637Z,22.50
2022-08-04T20:18:35.560Z,22.50
2022-08-04T20:21:11.384Z,22.50
2022-08-04T20:23:50.170Z,22.50
2022-08-04T20:26:17.341Z,22.50
2022-08-04T20:28:45.870Z,22.50
2022-08-04T20:31:19.837Z,22.50
2022-08-04T20:33:53.576Z,22.50
2022-08-04T20:36:22.652Z,22.40
2022-08-04T20:38:52.858Z,22.40
2022-08-04T20:41:21.720Z,22.50
2022-08-04T20:43:50.754Z,22.50
2022-08-04T20:49:08.983Z,22.50
2022-08-04T20:51:43.291Z,22.40
2022-08-04T20:54:16.472Z,22.50
2022-08-04T20:56:51.222Z,22.40
2022-08-04T20:59:20.440Z,22.40
2022-08-04T21:01:49.034Z,22.40
2022-08-04T21:04:35.828Z,22.40
2022-08-04T21:07:06.147Z,22.40
2022-08-04T21:09:38.287Z,22.50
2022-08-04T21:15:14.452Z,22.50
2022-08-04T21:20:33.351Z,22.50
2022-08-04T21:23:03.736Z,22.50
2022-08-04T21:25:39.121Z,22.60
2022-08-04T21:28:12.547Z,22.60
2022-08-04T21:30:54.091Z,22.60
2022-08-04T21:33:24.564Z,22.60
2022-08-04T21:36:12.518Z,22.60
2022-08-04T21:41:29.422Z,22.60
2022-08-04T21:43:58.841Z,22.60
2022-08-04T21:46:27.235Z,22.50
2022-08-04T21:48:59.346Z,22.50
2022-08-04T21:52:00.347Z,22.50
2022-08-04T21:54:19.189Z,22.40
2022-08-04T21:56:50.910Z,22.40
2022-08-04T21:59:24.319Z,22.40
2022-08-04T22:02:00.639Z,22.40
2022-08-04T22:04:30.354Z,22.40
2022-08-04T22:06:58.361Z,22.30
2022-08-04T22:09:38.911Z,22.30
2022-08-04T22:12:10.380Z,22.30
2022-08-04T22:14:40.064Z,22.30
2022-08-04T22:17:13.629Z,22.30
2022-08-04T22:22:30.142Z,22.30
2022-08-04T22:25:06.135Z,22.20
2022-08-04T22:28:01.703Z,22.20
2022-08-04T22:30:37.567Z,22.20
2022-08-04T22:33:08.336Z,22.20
2022-08-04T22:35:44.037Z,22.20
2022-08-04T22:38:24.062Z,22.10
2022-08-04T22:41:04.913Z,22.10
2022-08-04T22:43:34.799Z,22.10
2022-08-04T22:46:05.071Z,22.10
2022-08-04T22:48:36.173Z,22.10
2022-08-04T22:51:06.509Z,22.00
2022-08-04T22:53:35.681Z,22.00
2022-08-04T22:56:09.728Z,22.00
2022-08-04T22:58:45.816Z,22.00
2022-08-04T23:01:18.411Z,22.00
2022-08-04T23:03:50.854Z,22.00
2022-08-04T23:06:25.708Z,21.90
2022-08-04T23:08:57.926Z,21.90
2022-08-04T23:11:34.711Z,21.80
2022-08-04T23:14:05.404Z,21.80
2022-08-04T23:16:33.237Z,21.80
2022-08-04T23:19:15.134Z,21.70
2022-08-04T23:21:47.904Z,21.70
2022-08-04T23:24:29.706Z,21.60
2022-08-04T23:26:59.626Z,21.50
2022-08-04T23:29:52.718Z,21.50
2022-08-04T23:32:16.109Z,21.50
2022-08-04T23:34:48.689Z,21.30
2022-08-04T23:37:16.442Z,21.30
2022-08-04T23:40:17.858Z,21.20
2022-08-04T23:42:32.309Z,21.10
2022-08-04T23:45:01.529Z,21.00
2022-08-04T23:48:14.656Z,20.90
2022-08-04T23:50:18.143Z,20.90
2022-08-04T23:52:45.740Z,20.90
2022-08-04T23:55:18.989Z,20.90
2022-08-04T23:58:06.078Z,20.80
